sensor_id;sensor_type;location;lat;lon;timestamp;temperature;humidity
25983;DHT22;13773;48.868;10.730;2023-02-15T00:01:05;-1.20;99.90
25983;DHT22;13773;48.868;10.730;2023-02-15T00:03:31;-1.20;99.90
25983;DHT22;13773;48.868;10.730;2023-02-15T00:05:57;-1.30;99.90
25983;DHT22;13773;48.868;10.730;2023-02-15T00:08:23;-1.30;99.90
25983;DHT22;13773;48.868;10.730;2023-02-15T00:10:49;-1.30;99.90
25983;DHT22;13773;48.868;10.730;2023-02-15T00:13:14;-1.30;99.90
25983;DHT22;13773;48.868;10.730;2023-02-15T00:15:40;-1.30;99.90
25983;DHT22;13773;48.868;10.730;2023-02-15T00:18:05;-1.20;99.90
25983;DHT22;13773;48.868;10.730;2023-02-15T00:20:31;-1.30;99.90
25983;DHT22;13773;48.868;10.730;2023-02-15T00:22:57;-1.20;99.90
25983;DHT22;13773;48.868;10.730;2023-02-15T00:25:22;-1.20;99.90
25983;DHT22;13773;48.868;10.730;2023-02-15T00:27:48;-1.20;99.90
25983;DHT22;13773;48.868;10.730;2023-02-15T00:30:14;-1.40;99.90
25983;DHT22;13773;48.868;10.730;2023-02-15T00:32:39;-1.40;99.90
25983;DHT22;13773;48.868;10.730;2023-02-15T00:35:05;-1.40;99.90
25983;DHT22;13773;48.868;10.730;2023-02-15T00:37:32;-1.40;99.90
25983;DHT22;13773;48.868;10.730;2023-02-15T00:39:58;-1.40;99.90
25983;DHT22;13773;48.868;10.730;2023-02-15T00:42:23;-1.50;99.90
25983;DHT22;13773;48.868;10.730;2023-02-15T00:44:49;-1.50;99.90
25983;DHT22;13773;48.868;10.730;2023-02-15T00:47:15;-1.40;99.90
25983;DHT22;13773;48.868;10.730;2023-02-15T00:49:40;-1.30;99.90
25983;DHT22;13773;48.868;10.730;2023-02-15T00:52:06;-1.40;99.90
25983;DHT22;13773;48.868;10.730;2023-02-15T00:54:31;-1.40;99.90
25983;DHT22;13773;48.868;10.730;2023-02-15T00:56:57;-1.50;99.90
25983;DHT22;13773;48.868;10.730;2023-02-15T00:59:23;-1.50;99.90
25983;DHT22;13773;48.868;10.730;2023-02-15T01:01:48;-1.50;99.90
25983;DHT22;13773;48.868;10.730;2023-02-15T01:04:14;-1.60;99.90
25983;DHT22;13773;48.868;10.730;2023-02-15T01:06:40;-1.50;99.90
25983;DHT22;13773;48.868;10.730;2023-02-15T01:09:05;-1.70;99.90
25983;DHT22;13773;48.868;10.730;2023-02-15T01:11:31;-1.50;99.90
25983;DHT22;13773;48.868;10.730;2023-02-15T01:13:57;-1.60;99.90
25983;DHT22;13773;48.868;10.730;2023-02-15T01:16:25;-1.50;99.90
25983;DHT22;13773;48.868;10.730;2023-02-15T01:18:51;-1.50;99.90
25983;DHT22;13773;48.868;10.730;2023-02-15T01:21:19;-1.50;99.90
25983;DHT22;13773;48.868;10.730;2023-02-15T01:23:46;-1.40;99.90
25983;DHT22;13773;48.868;10.730;2023-02-15T01:26:12;-1.40;99.90
25983;DHT22;13773;48.868;10.730;2023-02-15T01:28:38;-1.50;99.90
25983;DHT22;13773;48.868;10.730;2023-02-15T01:31:08;-1.50;99.90
25983;DHT22;13773;48.868;10.730;2023-02-15T01:33:35;-1.50;99.90
25983;DHT22;13773;48.868;10.730;2023-02-15T01:36:01;-1.50;99.90
25983;DHT22;13773;48.868;10.730;2023-02-15T01:38:27;-1.50;99.90
25983;DHT22;13773;48.868;10.730;2023-02-15T01:40:53;-1.50;99.90
25983;DHT22;13773;48.868;10.730;2023-02-15T01:43:41;-4.20;99.90
25983;DHT22;13773;48.868;10.730;2023-02-15T01:46:07;-1.40;99.90
25983;DHT22;13773;48.868;10.730;2023-02-15T01:48:33;-1.60;99.90
25983;DHT22;13773;48.868;10.730;2023-02-15T01:51:01;-1.50;99.90
25983;DHT22;13773;48.868;10.730;2023-02-15T01:53:34;-1.50;99.90
25983;DHT22;13773;48.868;10.730;2023-02-15T01:56:22;-1.40;99.90
25983;DHT22;13773;48.868;10.730;2023-02-15T01:58:50;-1.60;99.90
25983;DHT22;13773;48.868;10.730;2023-02-15T02:01:18;-1.50;99.90
25983;DHT22;13773;48.868;10.730;2023-02-15T02:03:49;-1.60;99.90
25983;DHT22;13773;48.868;10.730;2023-02-15T02:06:19;-1.40;99.90
25983;DHT22;13773;48.868;10.730;2023-02-15T02:08:46;-1.40;99.90
25983;DHT22;13773;48.868;10.730;2023-02-15T02:11:14;-1.50;99.90
25983;DHT22;13773;48.868;10.730;2023-02-15T02:13:41;-1.80;99.90
25983;DHT22;13773;48.868;10.730;2023-02-15T02:22:15;-1.70;99.90
25983;DHT22;13773;48.868;10.730;2023-02-15T02:44:23;1.20;99.90
25983;DHT22;13773;48.868;10.730;2023-02-15T02:46:59;-1.70;99.90
25983;DHT22;13773;48.868;10.730;2023-02-15T02:49:40;-1.80;99.90
25983;DHT22;13773;48.868;10.730;2023-02-15T02:52:34;-1.80;99.90
25983;DHT22;13773;48.868;10.730;2023-02-15T02:55:01;-1.90;99.90
25983;DHT22;13773;48.868;10.730;2023-02-15T02:57:28;-1.90;99.90
25983;DHT22;13773;48.868;10.730;2023-02-15T02:59:55;-1.90;99.90
25983;DHT22;13773;48.868;10.730;2023-02-15T03:02:30;-1.60;99.90
25983;DHT22;13773;48.868;10.730;2023-02-15T03:05:00;-1.60;99.90
25983;DHT22;13773;48.868;10.730;2023-02-15T03:07:30;-1.90;99.90
25983;DHT22;13773;48.868;10.730;2023-02-15T03:09:58;-1.90;99.90
25983;DHT22;13773;48.868;10.730;2023-02-15T03:12:30;-1.90;99.90
25983;DHT22;13773;48.868;10.730;2023-02-15T03:15:15;-1.90;99.90
25983;DHT22;13773;48.868;10.730;2023-02-15T03:17:44;-1.90;99.90
25983;DHT22;13773;48.868;10.730;2023-02-15T03:20:32;-1.90;99.90
25983;DHT22;13773;48.868;10.730;2023-02-15T03:23:06;-1.90;99.90
25983;DHT22;13773;48.868;10.730;2023-02-15T03:25:45;-1.50;99.90
25983;DHT22;13773;48.868;10.730;2023-02-15T03:28:20;-1.80;99.90
25983;DHT22;13773;48.868;10.730;2023-02-15T03:30:52;-1.90;99.90
25983;DHT22;13773;48.868;10.730;2023-02-15T03:33:20;-1.90;99.90
25983;DHT22;13773;48.868;10.730;2023-02-15T03:38:43;-1.90;99.90
25983;DHT22;13773;48.868;10.730;2023-02-15T03:41:12;-1.70;99.90
25983;DHT22;13773;48.868;10.730;2023-02-15T03:43:58;-2.00;99.90
25983;DHT22;13773;48.868;10.730;2023-02-15T03:46:42;-2.00;99.90
25983;DHT22;13773;48.868;10.730;2023-02-15T03:51:40;-1.90;99.90
25983;DHT22;13773;48.868;10.730;2023-02-15T03:54:16;-2.00;99.90
25983;DHT22;13773;48.868;10.730;2023-02-15T03:57:03;-1.90;99.90
25983;DHT22;13773;48.868;10.730;2023-02-15T03:59:47;-1.90;99.90
25983;DHT22;13773;48.868;10.730;2023-02-15T04:02:40;-1.90;99.90
25983;DHT22;13773;48.868;10.730;2023-02-15T04:05:09;-1.80;99.90
25983;DHT22;13773;48.868;10.730;2023-02-15T04:07:34;-1.80;99.90
25983;DHT22;13773;48.868;10.730;2023-02-15T04:10:00;-1.80;99.90
25983;DHT22;13773;48.868;10.730;2023-02-15T04:12:44;-1.80;99.90
25983;DHT22;13773;48.868;10.730;2023-02-15T04:15:13;-1.80;99.90
25983;DHT22;13773;48.868;10.730;2023-02-15T04:17:57;-1.50;99.90
25983;DHT22;13773;48.868;10.730;2023-02-15T04:20:23;-1.80;99.90
25983;DHT22;13773;48.868;10.730;2023-02-15T04:23:07;-1.80;99.90
25983;DHT22;13773;48.868;10.730;2023-02-15T04:25:51;-1.80;99.90
25983;DHT22;13773;48.868;10.730;2023-02-15T04:28:17;-1.80;99.90
25983;DHT22;13773;48.868;10.730;2023-02-15T04:30:42;-1.80;99.90
25983;DHT22;13773;48.868;10.730;2023-02-15T04:33:08;-1.90;99.90
25983;DHT22;13773;48.868;10.730;2023-02-15T04:35:34;-1.80;99.90
25983;DHT22;13773;48.868;10.730;2023-02-15T04:37:59;-1.90;99.90
25983;DHT22;13773;48.868;10.730;2023-02-15T04:40:25;-1.70;99.90
25983;DHT22;13773;48.868;10.730;2023-02-15T04:42:51;-1.70;99.90
25983;DHT22;13773;48.868;10.730;2023-02-15T04:45:17;-1.80;99.90
25983;DHT22;13773;48.868;10.730;2023-02-15T04:47:43;-1.80;99.90
25983;DHT22;13773;48.868;10.730;2023-02-15T04:50:09;-1.90;99.90
25983;DHT22;13773;48.868;10.730;2023-02-15T04:52:35;-1.90;99.90
25983;DHT22;13773;48.868;10.730;2023-02-15T04:55:01;-1.90;99.90
25983;DHT22;13773;48.868;10.730;2023-02-15T04:57:27;-1.90;99.90
25983;DHT22;13773;48.868;10.730;2023-02-15T04:59:52;-1.90;99.90
25983;DHT22;13773;48.868;10.730;2023-02-15T05:02:18;-1.90;99.90
25983;DHT22;13773;48.868;10.730;2023-02-15T05:04:44;-2.10;99.90
25983;DHT22;13773;48.868;10.730;2023-02-15T05:07:09;-2.10;99.90
25983;DHT22;13773;48.868;10.730;2023-02-15T05:09:35;-2.20;99.90
25983;DHT22;13773;48.868;10.730;2023-02-15T05:12:01;-2.20;99.90
25983;DHT22;13773;48.868;10.730;2023-02-15T05:14:26;-2.20;99.90
25983;DHT22;13773;48.868;10.730;2023-02-15T05:16:52;-2.20;99.90
25983;DHT22;13773;48.868;10.730;2023-02-15T05:19:19;-1.90;99.90
25983;DHT22;13773;48.868;10.730;2023-02-15T05:21:45;-2.10;99.90
25983;DHT22;13773;48.868;10.730;2023-02-15T05:24:10;-2.10;99.90
25983;DHT22;13773;48.868;10.730;2023-02-15T05:26:55;-1.90;99.90
25983;DHT22;13773;48.868;10.730;2023-02-15T05:29:39;-2.00;99.90
25983;DHT22;13773;48.868;10.730;2023-02-15T05:32:04;-2.20;99.90
25983;DHT22;13773;48.868;10.730;2023-02-15T05:34:30;-2.20;99.90
25983;DHT22;13773;48.868;10.730;2023-02-15T05:36:56;-2.10;99.90
25983;DHT22;13773;48.868;10.730;2023-02-15T05:39:22;-2.20;99.90
25983;DHT22;13773;48.868;10.730;2023-02-15T05:41:48;-2.00;99.90
25983;DHT22;13773;48.868;10.730;2023-02-15T05:44:13;-2.10;99.90
25983;DHT22;13773;48.868;10.730;2023-02-15T05:46:39;-2.00;99.90
25983;DHT22;13773;48.868;10.730;2023-02-15T05:49:05;-2.00;99.90
25983;DHT22;13773;48.868;10.730;2023-02-15T05:51:30;-2.00;99.90
25983;DHT22;13773;48.868;10.730;2023-02-15T05:53:56;-2.00;99.90
25983;DHT22;13773;48.868;10.730;2023-02-15T05:56:21;-2.00;99.90
25983;DHT22;13773;48.868;10.730;2023-02-15T05:58:47;-2.00;99.90
25983;DHT22;13773;48.868;10.730;2023-02-15T06:01:18;-2.10;99.90
25983;DHT22;13773;48.868;10.730;2023-02-15T06:03:45;-2.10;99.90
25983;DHT22;13773;48.868;10.730;2023-02-15T06:06:11;-2.20;99.90
25983;DHT22;13773;48.868;10.730;2023-02-15T06:08:37;-2.20;99.90
25983;DHT22;13773;48.868;10.730;2023-02-15T06:11:04;-2.20;99.90
25983;DHT22;13773;48.868;10.730;2023-02-15T06:13:31;-2.20;99.90
25983;DHT22;13773;48.868;10.730;2023-02-15T06:15:57;-2.20;99.90
25983;DHT22;13773;48.868;10.730;2023-02-15T06:18:23;-2.10;99.90
25983;DHT22;13773;48.868;10.730;2023-02-15T06:20:49;-2.20;99.90
25983;DHT22;13773;48.868;10.730;2023-02-15T06:23:16;-2.10;99.90
25983;DHT22;13773;48.868;10.730;2023-02-15T06:25:42;-2.20;99.90
25983;DHT22;13773;48.868;10.730;2023-02-15T06:28:07;-2.10;99.90
25983;DHT22;13773;48.868;10.730;2023-02-15T06:30:33;-2.20;99.90
25983;DHT22;13773;48.868;10.730;2023-02-15T06:32:59;-2.10;99.90
25983;DHT22;13773;48.868;10.730;2023-02-15T06:35:25;-2.10;99.90
25983;DHT22;13773;48.868;10.730;2023-02-15T06:37:50;-2.10;99.90
25983;DHT22;13773;48.868;10.730;2023-02-15T06:40:16;-2.00;99.90
25983;DHT22;13773;48.868;10.730;2023-02-15T06:42:42;-2.00;99.90
25983;DHT22;13773;48.868;10.730;2023-02-15T06:45:09;-1.60;99.90
25983;DHT22;13773;48.868;10.730;2023-02-15T06:47:35;-2.10;99.90
25983;DHT22;13773;48.868;10.730;2023-02-15T06:50:01;-2.10;99.90
25983;DHT22;13773;48.868;10.730;2023-02-15T06:52:26;-2.00;99.90
25983;DHT22;13773;48.868;10.730;2023-02-15T06:54:53;-2.00;99.90
25983;DHT22;13773;48.868;10.730;2023-02-15T06:57:19;-1.90;99.90
25983;DHT22;13773;48.868;10.730;2023-02-15T06:59:44;-2.10;99.90
25983;DHT22;13773;48.868;10.730;2023-02-15T07:02:13;-2.10;99.90
25983;DHT22;13773;48.868;10.730;2023-02-15T07:04:39;-2.10;99.90
25983;DHT22;13773;48.868;10.730;2023-02-15T07:07:08;-2.00;99.90
25983;DHT22;13773;48.868;10.730;2023-02-15T07:09:34;-2.00;99.90
25983;DHT22;13773;48.868;10.730;2023-02-15T07:12:00;-2.00;99.90
25983;DHT22;13773;48.868;10.730;2023-02-15T07:14:44;-1.90;99.90
25983;DHT22;13773;48.868;10.730;2023-02-15T07:17:10;-1.90;99.90
25983;DHT22;13773;48.868;10.730;2023-02-15T07:19:36;-1.90;99.90
25983;DHT22;13773;48.868;10.730;2023-02-15T07:22:01;-1.80;99.90
25983;DHT22;13773;48.868;10.730;2023-02-15T07:24:29;-1.70;99.90
25983;DHT22;13773;48.868;10.730;2023-02-15T07:26:54;-1.80;99.90
25983;DHT22;13773;48.868;10.730;2023-02-15T07:29:20;-1.70;99.90
25983;DHT22;13773;48.868;10.730;2023-02-15T07:31:45;-1.80;99.90
25983;DHT22;13773;48.868;10.730;2023-02-15T07:34:11;-1.70;99.90
25983;DHT22;13773;48.868;10.730;2023-02-15T07:36:37;-1.70;99.90
25983;DHT22;13773;48.868;10.730;2023-02-15T07:39:03;-1.70;99.90
25983;DHT22;13773;48.868;10.730;2023-02-15T07:41:29;-1.70;99.90
25983;DHT22;13773;48.868;10.730;2023-02-15T07:43:54;-1.70;99.90
25983;DHT22;13773;48.868;10.730;2023-02-15T07:46:20;-1.70;99.90
25983;DHT22;13773;48.868;10.730;2023-02-15T07:48:47;-1.70;99.90
25983;DHT22;13773;48.868;10.730;2023-02-15T07:51:13;-1.40;99.90
25983;DHT22;13773;48.868;10.730;2023-02-15T07:53:40;-1.60;99.90
25983;DHT22;13773;48.868;10.730;2023-02-15T07:56:11;-1.50;99.90
25983;DHT22;13773;48.868;10.730;2023-02-15T07:58:38;-1.50;99.90
25983;DHT22;13773;48.868;10.730;2023-02-15T08:01:16;-1.50;99.90
25983;DHT22;13773;48.868;10.730;2023-02-15T08:03:43;-1.50;99.90
25983;DHT22;13773;48.868;10.730;2023-02-15T08:06:09;-1.50;99.90
25983;DHT22;13773;48.868;10.730;2023-02-15T08:08:37;-1.40;99.90
25983;DHT22;13773;48.868;10.730;2023-02-15T08:13:54;-1.30;99.90
25983;DHT22;13773;48.868;10.730;2023-02-15T08:18:49;-1.20;99.90
25983;DHT22;13773;48.868;10.730;2023-02-15T08:21:16;-1.10;99.90
25983;DHT22;13773;48.868;10.730;2023-02-15T08:23:41;-0.80;99.90
25983;DHT22;13773;48.868;10.730;2023-02-15T08:26:07;-0.90;99.90
25983;DHT22;13773;48.868;10.730;2023-02-15T08:28:33;-0.90;99.90
25983;DHT22;13773;48.868;10.730;2023-02-15T08:31:25;-1.00;99.90
25983;DHT22;13773;48.868;10.730;2023-02-15T08:33:53;-0.90;99.90
25983;DHT22;13773;48.868;10.730;2023-02-15T08:36:20;-0.90;99.90
25983;DHT22;13773;48.868;10.730;2023-02-15T08:38:47;-0.90;99.90
25983;DHT22;13773;48.868;10.730;2023-02-15T08:41:21;-0.80;99.90
25983;DHT22;13773;48.868;10.730;2023-02-15T08:43:49;-0.70;99.90
25983;DHT22;13773;48.868;10.730;2023-02-15T08:46:16;-0.80;99.90
25983;DHT22;13773;48.868;10.730;2023-02-15T08:48:43;-0.60;99.90
25983;DHT22;13773;48.868;10.730;2023-02-15T08:51:10;-0.50;99.90
25983;DHT22;13773;48.868;10.730;2023-02-15T08:53:37;-0.50;99.90
25983;DHT22;13773;48.868;10.730;2023-02-15T08:56:03;-0.40;99.90
25983;DHT22;13773;48.868;10.730;2023-02-15T08:58:29;-0.40;99.90
25983;DHT22;13773;48.868;10.730;2023-02-15T09:00:57;-0.40;99.90
25983;DHT22;13773;48.868;10.730;2023-02-15T09:03:23;-0.30;99.90
25983;DHT22;13773;48.868;10.730;2023-02-15T09:05:49;-0.30;99.90
25983;DHT22;13773;48.868;10.730;2023-02-15T09:08:15;-0.20;99.90
25983;DHT22;13773;48.868;10.730;2023-02-15T09:10:41;-0.50;99.90
25983;DHT22;13773;48.868;10.730;2023-02-15T09:13:07;-0.50;99.90
25983;DHT22;13773;48.868;10.730;2023-02-15T09:15:33;-0.30;99.90
25983;DHT22;13773;48.868;10.730;2023-02-15T09:17:58;-0.10;99.90
25983;DHT22;13773;48.868;10.730;2023-02-15T09:20:27;-0.10;99.90
25983;DHT22;13773;48.868;10.730;2023-02-15T09:22:53;-0.30;99.90
25983;DHT22;13773;48.868;10.730;2023-02-15T09:25:19;0.20;99.90
25983;DHT22;13773;48.868;10.730;2023-02-15T09:27:45;0.00;99.90
25983;DHT22;13773;48.868;10.730;2023-02-15T09:30:11;0.00;99.90
25983;DHT22;13773;48.868;10.730;2023-02-15T09:32:37;0.10;99.90
25983;DHT22;13773;48.868;10.730;2023-02-15T09:35:03;0.50;99.90
25983;DHT22;13773;48.868;10.730;2023-02-15T09:37:30;0.20;99.90
25983;DHT22;13773;48.868;10.730;2023-02-15T09:39:57;0.10;99.90
25983;DHT22;13773;48.868;10.730;2023-02-15T09:42:51;0.10;99.90
25983;DHT22;13773;48.868;10.730;2023-02-15T09:45:45;0.00;99.90
25983;DHT22;13773;48.868;10.730;2023-02-15T09:56:32;0.10;99.90
25983;DHT22;13773;48.868;10.730;2023-02-15T10:13:41;0.20;99.90
25983;DHT22;13773;48.868;10.730;2023-02-15T10:21:41;0.70;99.90
25983;DHT22;13773;48.868;10.730;2023-02-15T10:26:48;1.00;99.90
25983;DHT22;13773;48.868;10.730;2023-02-15T10:29:36;1.00;99.90
25983;DHT22;13773;48.868;10.730;2023-02-15T10:32:05;1.20;99.90
25983;DHT22;13773;48.868;10.730;2023-02-15T10:34:39;1.30;99.90
25983;DHT22;13773;48.868;10.730;2023-02-15T10:45:12;1.00;99.90
25983;DHT22;13773;48.868;10.730;2023-02-15T10:47:46;0.90;99.90
25983;DHT22;13773;48.868;10.730;2023-02-15T10:53:06;1.30;99.90
25983;DHT22;13773;48.868;10.730;2023-02-15T10:56:06;1.20;99.90
25983;DHT22;13773;48.868;10.730;2023-02-15T10:58:57;1.30;99.90
25983;DHT22;13773;48.868;10.730;2023-02-15T11:06:40;1.80;99.90
25983;DHT22;13773;48.868;10.730;2023-02-15T11:09:13;1.30;99.90
25983;DHT22;13773;48.868;10.730;2023-02-15T11:11:46;1.40;99.90
25983;DHT22;13773;48.868;10.730;2023-02-15T11:17:05;1.70;99.90
25983;DHT22;13773;48.868;10.730;2023-02-15T11:19:37;1.70;99.90
25983;DHT22;13773;48.868;10.730;2023-02-15T11:22:06;2.00;99.90
25983;DHT22;13773;48.868;10.730;2023-02-15T11:24:41;2.20;99.90
25983;DHT22;13773;48.868;10.730;2023-02-15T11:27:22;2.40;99.90
25983;DHT22;13773;48.868;10.730;2023-02-15T11:32:29;1.90;99.90
25983;DHT22;13773;48.868;10.730;2023-02-15T11:35:17;2.00;99.90
25983;DHT22;13773;48.868;10.730;2023-02-15T11:38:35;2.40;99.90
25983;DHT22;13773;48.868;10.730;2023-02-15T11:40:44;2.40;99.90
25983;DHT22;13773;48.868;10.730;2023-02-15T11:46:14;2.60;99.90
25983;DHT22;13773;48.868;10.730;2023-02-15T11:48:40;2.30;99.90
25983;DHT22;13773;48.868;10.730;2023-02-15T11:51:18;2.30;99.90
25983;DHT22;13773;48.868;10.730;2023-02-15T11:53:45;2.50;99.90
25983;DHT22;13773;48.868;10.730;2023-02-15T11:56:15;2.30;99.90
25983;DHT22;13773;48.868;10.730;2023-02-15T11:58:46;2.50;99.90
25983;DHT22;13773;48.868;10.730;2023-02-15T12:01:32;2.70;99.90
25983;DHT22;13773;48.868;10.730;2023-02-15T12:04:06;2.90;99.90
25983;DHT22;13773;48.868;10.730;2023-02-15T12:06:38;3.10;99.90
25983;DHT22;13773;48.868;10.730;2023-02-15T12:09:36;3.30;99.90
25983;DHT22;13773;48.868;10.730;2023-02-15T12:12:26;3.10;99.90
25983;DHT22;13773;48.868;10.730;2023-02-15T12:14:57;5.20;99.90
25983;DHT22;13773;48.868;10.730;2023-02-15T12:17:33;2.80;99.90
25983;DHT22;13773;48.868;10.730;2023-02-15T12:20:28;2.90;99.90
25983;DHT22;13773;48.868;10.730;2023-02-15T12:23:06;3.10;99.90
25983;DHT22;13773;48.868;10.730;2023-02-15T12:25:41;3.00;99.90
25983;DHT22;13773;48.868;10.730;2023-02-15T12:28:31;3.10;99.90
25983;DHT22;13773;48.868;10.730;2023-02-15T12:30:58;3.30;99.90
25983;DHT22;13773;48.868;10.730;2023-02-15T12:33:35;3.40;99.90
25983;DHT22;13773;48.868;10.730;2023-02-15T12:36:15;3.20;99.90
25983;DHT22;13773;48.868;10.730;2023-02-15T12:38:43;3.20;99.90
25983;DHT22;13773;48.868;10.730;2023-02-15T12:41:29;3.50;99.90
25983;DHT22;13773;48.868;10.730;2023-02-15T12:44:16;3.40;99.90
25983;DHT22;13773;48.868;10.730;2023-02-15T12:46:59;3.60;99.90
25983;DHT22;13773;48.868;10.730;2023-02-15T12:49:26;3.50;99.90
25983;DHT22;13773;48.868;10.730;2023-02-15T12:51:54;3.70;99.90
25983;DHT22;13773;48.868;10.730;2023-02-15T12:56:55;3.70;99.90
25983;DHT22;13773;48.868;10.730;2023-02-15T12:59:23;3.40;99.90
25983;DHT22;13773;48.868;10.730;2023-02-15T13:01:49;3.20;99.90
25983;DHT22;13773;48.868;10.730;2023-02-15T13:04:24;2.80;99.90
25983;DHT22;13773;48.868;10.730;2023-02-15T13:06:57;2.30;99.90
25983;DHT22;13773;48.868;10.730;2023-02-15T13:09:37;2.10;99.90
25983;DHT22;13773;48.868;10.730;2023-02-15T13:12:30;2.40;99.90
25983;DHT22;13773;48.868;10.730;2023-02-15T13:14:57;2.70;99.90
25983;DHT22;13773;48.868;10.730;2023-02-15T13:17:32;2.80;99.90
25983;DHT22;13773;48.868;10.730;2023-02-15T13:20:06;2.70;99.90
25983;DHT22;13773;48.868;10.730;2023-02-15T13:22:41;2.40;99.90
25983;DHT22;13773;48.868;10.730;2023-02-15T13:25:26;2.40;99.90
25983;DHT22;13773;48.868;10.730;2023-02-15T13:27:56;2.60;99.90
25983;DHT22;13773;48.868;10.730;2023-02-15T13:30:34;2.80;99.90
25983;DHT22;13773;48.868;10.730;2023-02-15T13:33:24;2.90;99.90
25983;DHT22;13773;48.868;10.730;2023-02-15T13:42:20;3.40;99.90
25983;DHT22;13773;48.868;10.730;2023-02-15T13:51:21;3.00;99.90
25983;DHT22;13773;48.868;10.730;2023-02-15T13:54:06;2.80;99.90
25983;DHT22;13773;48.868;10.730;2023-02-15T14:16:41;2.20;99.90
25983;DHT22;13773;48.868;10.730;2023-02-15T14:19:16;2.50;99.90
25983;DHT22;13773;48.868;10.730;2023-02-15T14:21:48;2.70;99.90
25983;DHT22;13773;48.868;10.730;2023-02-15T14:24:30;2.50;99.90
25983;DHT22;13773;48.868;10.730;2023-02-15T14:27:24;2.40;99.90
25983;DHT22;13773;48.868;10.730;2023-02-15T14:30:03;2.20;99.90
25983;DHT22;13773;48.868;10.730;2023-02-15T14:32:37;1.30;99.90
25983;DHT22;13773;48.868;10.730;2023-02-15T14:35:13;1.10;99.90
25983;DHT22;13773;48.868;10.730;2023-02-15T14:37:58;1.20;99.90
25983;DHT22;13773;48.868;10.730;2023-02-15T14:40:38;1.60;99.90
25983;DHT22;13773;48.868;10.730;2023-02-15T14:48:36;2.20;99.90
25983;DHT22;13773;48.868;10.730;2023-02-15T14:51:04;2.50;99.90
25983;DHT22;13773;48.868;10.730;2023-02-15T14:56:17;2.40;99.90
25983;DHT22;13773;48.868;10.730;2023-02-15T15:01:30;2.00;99.90
25983;DHT22;13773;48.868;10.730;2023-02-15T15:04:01;1.90;99.90
25983;DHT22;13773;48.868;10.730;2023-02-15T15:06:33;1.70;99.90
25983;DHT22;13773;48.868;10.730;2023-02-15T15:09:20;1.40;99.90
25983;DHT22;13773;48.868;10.730;2023-02-15T15:11:50;1.60;99.90
25983;DHT22;13773;48.868;10.730;2023-02-15T15:16:57;1.60;99.90
25983;DHT22;13773;48.868;10.730;2023-02-15T15:27:48;1.10;99.90
25983;DHT22;13773;48.868;10.730;2023-02-15T15:50:19;1.10;99.90
25983;DHT22;13773;48.868;10.730;2023-02-15T15:52:55;1.00;99.90
25983;DHT22;13773;48.868;10.730;2023-02-15T15:55:24;0.80;99.90
25983;DHT22;13773;48.868;10.730;2023-02-15T15:57:53;0.80;99.90
25983;DHT22;13773;48.868;10.730;2023-02-15T16:02:52;0.40;99.90
25983;DHT22;13773;48.868;10.730;2023-02-15T16:05:18;0.90;99.90
25983;DHT22;13773;48.868;10.730;2023-02-15T16:07:44;0.60;99.90
25983;DHT22;13773;48.868;10.730;2023-02-15T16:10:21;0.70;99.90
25983;DHT22;13773;48.868;10.730;2023-02-15T16:12:48;0.60;99.90
25983;DHT22;13773;48.868;10.730;2023-02-15T16:15:19;0.50;99.90
25983;DHT22;13773;48.868;10.730;2023-02-15T16:17:47;0.50;99.90
25983;DHT22;13773;48.868;10.730;2023-02-15T16:20:19;0.50;99.90
25983;DHT22;13773;48.868;10.730;2023-02-15T16:25:42;0.10;99.90
25983;DHT22;13773;48.868;10.730;2023-02-15T16:28:12;0.00;99.90
25983;DHT22;13773;48.868;10.730;2023-02-15T16:30:40;0.10;99.90
25983;DHT22;13773;48.868;10.730;2023-02-15T16:35:37;0.00;99.90
25983;DHT22;13773;48.868;10.730;2023-02-15T16:38:03;0.00;99.90
25983;DHT22;13773;48.868;10.730;2023-02-15T16:40:35;0.00;99.90
25983;DHT22;13773;48.868;10.730;2023-02-15T16:43:04;-0.20;99.90
25983;DHT22;13773;48.868;10.730;2023-02-15T16:45:33;-0.30;99.90
25983;DHT22;13773;48.868;10.730;2023-02-15T16:48:07;-0.30;99.90
25983;DHT22;13773;48.868;10.730;2023-02-15T16:50:36;-0.30;99.90
25983;DHT22;13773;48.868;10.730;2023-02-15T16:53:04;-0.50;99.90
25983;DHT22;13773;48.868;10.730;2023-02-15T16:55:38;-0.40;99.90
25983;DHT22;13773;48.868;10.730;2023-02-15T16:58:06;-0.50;99.90
25983;DHT22;13773;48.868;10.730;2023-02-15T17:00:37;-0.50;99.90
25983;DHT22;13773;48.868;10.730;2023-02-15T17:03:04;-0.50;99.90
25983;DHT22;13773;48.868;10.730;2023-02-15T17:05:40;-0.50;99.90
25983;DHT22;13773;48.868;10.730;2023-02-15T17:08:17;-0.80;99.90
25983;DHT22;13773;48.868;10.730;2023-02-15T17:13:39;-0.80;99.90
25983;DHT22;13773;48.868;10.730;2023-02-15T17:16:18;-0.70;99.90
25983;DHT22;13773;48.868;10.730;2023-02-15T17:18:46;-0.90;99.90
25983;DHT22;13773;48.868;10.730;2023-02-15T17:21:16;-1.00;99.90
25983;DHT22;13773;48.868;10.730;2023-02-15T17:23:47;-1.00;99.90
25983;DHT22;13773;48.868;10.730;2023-02-15T17:26:20;-0.90;99.90
25983;DHT22;13773;48.868;10.730;2023-02-15T17:28:51;-1.00;99.90
25983;DHT22;13773;48.868;10.730;2023-02-15T17:31:19;-0.40;99.90
25983;DHT22;13773;48.868;10.730;2023-02-15T17:33:46;-1.20;99.90
25983;DHT22;13773;48.868;10.730;2023-02-15T17:36:12;-1.30;99.90
25983;DHT22;13773;48.868;10.730;2023-02-15T17:41:30;-1.30;99.90
25983;DHT22;13773;48.868;10.730;2023-02-15T17:43:57;-1.40;99.90
25983;DHT22;13773;48.868;10.730;2023-02-15T17:46:24;-1.50;99.90
25983;DHT22;13773;48.868;10.730;2023-02-15T17:48:54;-1.50;99.90
25983;DHT22;13773;48.868;10.730;2023-02-15T17:51:21;-1.50;99.90
25983;DHT22;13773;48.868;10.730;2023-02-15T17:53:47;-1.50;99.90
25983;DHT22;13773;48.868;10.730;2023-02-15T17:56:33;-1.70;99.90
25983;DHT22;13773;48.868;10.730;2023-02-15T17:58:58;-1.70;99.90
25983;DHT22;13773;48.868;10.730;2023-02-15T18:01:24;-1.80;99.90
25983;DHT22;13773;48.868;10.730;2023-02-15T18:04:11;-1.90;99.90
25983;DHT22;13773;48.868;10.730;2023-02-15T18:06:56;-2.00;99.90
25983;DHT22;13773;48.868;10.730;2023-02-15T18:09:40;-1.90;99.90
25983;DHT22;13773;48.868;10.730;2023-02-15T18:12:35;-2.00;99.90
25983;DHT22;13773;48.868;10.730;2023-02-15T18:15:05;-2.10;99.90
25983;DHT22;13773;48.868;10.730;2023-02-15T18:17:42;-2.00;99.90
25983;DHT22;13773;48.868;10.730;2023-02-15T18:20:18;-2.10;99.90
25983;DHT22;13773;48.868;10.730;2023-02-15T18:22:45;-2.00;99.90
25983;DHT22;13773;48.868;10.730;2023-02-15T18:25:15;-2.10;99.90
25983;DHT22;13773;48.868;10.730;2023-02-15T18:27:42;-2.10;99.90
25983;DHT22;13773;48.868;10.730;2023-02-15T18:30:13;-2.00;99.90
25983;DHT22;13773;48.868;10.730;2023-02-15T18:32:40;-2.00;99.90
25983;DHT22;13773;48.868;10.730;2023-02-15T18:35:08;-2.10;99.90
25983;DHT22;13773;48.868;10.730;2023-02-15T18:37:38;-2.10;99.90
25983;DHT22;13773;48.868;10.730;2023-02-15T18:40:04;-1.90;99.90
25983;DHT22;13773;48.868;10.730;2023-02-15T18:42:32;-2.00;99.90
25983;DHT22;13773;48.868;10.730;2023-02-15T18:45:14;-2.00;99.90